Time;durP1;ratioP1;P1;durP2;ratioP2;P2;SDS_P1;SDS_P2;PMS_P1;PMS_P2;Temp;Humidity;BMP_temperature;BMP_pressure;BME280_temperature;BME280_humidity;BME280_pressure;Samples;Min_cycle;Max_cycle;Signal;HPM_P1;HPM_P2
2023/04/10 00:03:32;;;;;;;64.25;33.60;;;;;;;5.92;81.06;101108.69;30611689;28;109782;-63
2023/04/10 00:18:33;;;;;;;60.07;31.43;;;;;;;5.80;81.13;101091.09;30627328;28;96777;-62
2023/04/10 00:33:33;;;;;;;53.67;31.58;;;;;;;5.59;80.98;101091.75;30626097;28;106686;-62
2023/04/10 00:48:34;;;;;;;67.50;34.60;;;;;;;5.33;81.59;101086.63;30623966;28;110966;-63
2023/04/10 01:03:35;;;;;;;106.05;49.40;;;;;;;5.04;81.75;101089.63;30623296;28;96692;-63
2023/04/10 01:19:00;;;;;;;69.50;34.10;;;;;;;5.00;82.18;101092.59;30621587;28;96691;-63
2023/04/10 01:34:06;;;;;;;51.50;30.75;;;;;;;4.87;81.98;101093.47;30620720;28;97283;-62
2023/04/10 01:49:07;;;;;;;40.95;24.77;;;;;;;4.47;81.92;101085.78;30618941;28;97307;-62
2023/04/10 02:04:08;;;;;;;67.00;28.77;;;;;;;4.54;82.48;101092.31;30617909;28;96651;-62
2023/04/10 02:19:10;;;;;;;75.43;26.38;;;;;;;4.45;82.15;101092.97;30616075;28;98724;-62
2023/04/10 02:34:11;;;;;;;41.00;21.75;;;;;;;4.30;82.63;101099.31;30613724;28;96922;-63
2023/04/10 02:49:11;;;;;;;41.23;22.47;;;;;;;4.14;82.58;101104.81;30613373;28;97305;-63
2023/04/10 03:04:12;;;;;;;36.85;22.08;;;;;;;3.98;82.58;101099.75;30612584;28;96675;-62
2023/04/10 03:19:13;;;;;;;40.78;21.77;;;;;;;3.88;82.51;101121.47;30611399;28;97043;-62
2023/04/10 03:34:13;;;;;;;45.47;21.27;;;;;;;4.06;83.29;101103.56;30609974;28;97097;-62
2023/04/10 03:49:15;;;;;;;48.10;21.70;;;;;;;4.21;83.30;101095.50;30633950;28;100670;-63
2023/04/10 04:04:15;;;;;;;78.07;31.80;;;;;;;3.88;82.74;101100.38;30748118;28;96542;-62
2023/04/10 04:19:15;;;;;;;47.75;23.65;;;;;;;4.28;83.29;101111.75;30746578;28;97398;-63
2023/04/10 04:34:16;;;;;;;42.80;23.67;;;;;;;4.40;83.26;101114.41;30745088;28;96713;-63
2023/04/10 04:49:16;;;;;;;48.42;24.50;;;;;;;4.72;82.62;101127.09;30740764;28;96730;-62
2023/04/10 05:04:17;;;;;;;54.20;26.55;;;;;;;5.07;82.67;101130.81;30740334;28;97714;-62
2023/04/10 05:19:17;;;;;;;59.65;28.30;;;;;;;5.35;83.52;101150.78;30741007;28;96651;-64
2023/04/10 05:34:17;;;;;;;63.45;22.80;;;;;;;5.81;83.30;101182.69;30739131;28;96999;-65
2023/04/10 05:49:18;;;;;;;45.67;20.85;;;;;;;5.99;83.58;101197.19;30736174;28;98820;-63
2023/04/10 06:04:20;;;;;;;74.60;20.63;;;;;;;6.32;83.01;101187.66;30734443;28;96643;-64
2023/04/10 06:19:21;;;;;;;46.90;21.80;;;;;;;6.49;82.62;101182.84;30735721;28;97384;-63
2023/04/10 06:34:22;;;;;;;53.05;27.75;;;;;;;7.39;83.02;101177.44;30733862;28;107705;-64
2023/04/10 06:49:23;;;;;;;44.60;24.23;;;;;;;8.06;82.17;101198.53;30692590;28;96939;-63
2023/04/10 07:04:23;;;;;;;45.77;23.33;;;;;;;8.47;81.61;101210.13;30616466;28;96819;-63
2023/04/10 07:19:24;;;;;;;50.47;24.63;;;;;;;8.93;81.65;101205.31;30622632;28;97464;-62
2023/04/10 07:34:25;;;;;;;38.73;23.10;;;;;;;9.70;80.66;101221.53;30630341;28;96905;-63
2023/04/10 07:49:25;;;;;;;41.63;23.33;;;;;;;9.91;79.33;101202.75;30693885;28;97434;-64
2023/04/10 08:04:26;;;;;;;47.70;24.92;;;;;;;11.02;78.68;101208.38;30747374;28;96608;-64
2023/04/10 08:19:26;;;;;;;44.50;24.10;;;;;;;12.99;76.28;101205.66;30746499;28;97111;-63
2023/04/10 08:34:27;;;;;;;42.92;24.20;;;;;;;14.01;73.59;101192.13;30742316;28;107875;-65
2023/04/10 08:49:47;;;;;;;47.08;24.48;;;;;;;14.04;70.21;101189.13;30727419;28;96757;-64
2023/04/10 09:04:49;;;;;;;36.00;23.33;;;;;;;15.11;69.34;101186.13;30621076;28;96704;-64
2023/04/10 09:19:54;;;;;;;33.57;22.30;;;;;;;17.38;66.30;101178.06;30619438;28;96760;-65
2023/04/10 09:34:56;;;;;;;30.30;20.10;;;;;;;20.93;56.62;101167.63;30620176;28;96782;-66
2023/04/10 09:49:59;;;;;;;29.23;21.00;;;;;;;22.19;52.30;101135.25;30724627;28;97674;-65
2023/04/10 10:05:03;;;;;;;25.57;20.10;;;;;;;32.30;39.64;101122.03;30707650;28;96760;-64
2023/04/10 10:20:07;;;;;;;21.13;17.40;;;;;;;25.80;36.49;101100.00;30664443;28;97580;-64
2023/04/10 10:35:09;;;;;;;24.80;17.67;;;;;;;23.83;38.16;101083.66;30679274;28;97017;-67
2023/04/10 10:50:09;;;;;;;24.47;18.00;;;;;;;26.66;36.19;101066.69;30712250;28;97355;-66
2023/04/10 11:05:10;;;;;;;21.90;16.88;;;;;;;33.76;25.21;101055.22;30601152;28;97510;-66
2023/04/10 11:20:10;;;;;;;21.35;17.17;;;;;;;40.28;17.29;101038.69;30618578;28;97404;-66
2023/04/10 11:35:11;;;;;;;19.30;17.20;;;;;;;38.23;17.17;101015.75;30658839;28;96947;-65
2023/04/10 11:50:12;;;;;;;19.02;16.35;;;;;;;38.01;15.91;100995.41;30689302;28;97272;-64
2023/04/10 12:05:12;;;;;;;23.30;19.50;;;;;;;26.28;25.85;100999.34;30681966;28;96985;-65
2023/04/10 12:20:15;;;;;;;23.08;18.98;;;;;;;23.24;30.82;100992.03;30650950;28;97450;-66
2023/04/10 12:35:15;;;;;;;25.60;19.30;;;;;;;20.75;34.37;100981.50;30668173;28;97291;-67
2023/04/10 12:50:17;;;;;;;26.50;18.40;;;;;;;19.07;37.35;100971.16;30668608;28;97345;-66
2023/04/10 13:05:18;;;;;;;21.40;16.03;;;;;;;19.00;38.26;100945.19;30663116;28;96974;-65
2023/04/10 13:20:18;;;;;;;19.10;13.63;;;;;;;21.45;36.68;100915.47;30720210;28;97421;-64
2023/04/10 13:35:19;;;;;;;19.33;14.07;;;;;;;22.62;33.56;100913.59;30707015;28;97291;-75
2023/04/10 13:50:19;;;;;;;17.17;13.63;;;;;;;20.70;36.11;100881.16;30615584;28;97418;-66
2023/04/10 14:05:20;;;;;;;20.07;14.40;;;;;;;20.67;36.65;100862.59;30616675;28;97208;-66
2023/04/10 14:20:20;;;;;;;17.25;11.55;;;;;;;18.77;39.36;100846.56;30729399;28;97779;-65
2023/04/10 14:35:20;;;;;;;16.98;12.68;;;;;;;17.77;40.63;100825.63;30735293;28;96777;-65
2023/04/10 14:50:21;;;;;;;15.55;11.13;;;;;;;16.53;42.94;100798.41;30732595;28;96703;-65
2023/04/10 15:05:22;;;;;;;15.73;10.05;;;;;;;15.89;44.14;100783.13;30732845;28;97041;-65
2023/04/10 15:20:22;;;;;;;10.80;8.23;;;;;;;15.80;43.73;100762.78;30730951;28;96701;-65
2023/04/10 15:35:25;;;;;;;15.38;10.07;;;;;;;15.22;45.01;100736.69;30737171;28;97524;-65
2023/04/10 15:50:26;;;;;;;13.83;9.50;;;;;;;14.80;46.81;100717.56;30750944;28;97340;-64
2023/04/10 16:05:26;;;;;;;14.07;10.88;;;;;;;14.39;47.90;100716.13;30748192;28;96753;-64
2023/04/10 16:20:26;;;;;;;14.50;9.95;;;;;;;13.99;49.20;100688.69;30746706;28;96814;-64
2023/04/10 16:35:27;;;;;;;15.60;10.20;;;;;;;13.56;50.12;100671.44;30742253;28;96737;-65
2023/04/10 16:50:27;;;;;;;14.93;10.80;;;;;;;13.03;51.61;100645.31;30650588;28;97473;-65
2023/04/10 17:05:35;;;;;;;16.98;11.43;;;;;;;12.56;52.54;100624.81;30613055;28;97448;-65
2023/04/10 17:20:36;;;;;;;19.73;11.03;;;;;;;12.00;54.19;100628.25;30627070;28;96775;-65
2023/04/10 17:35:36;;;;;;;18.17;11.43;;;;;;;11.44;55.58;100628.94;30616859;28;97197;-66
2023/04/10 17:50:36;;;;;;;20.63;13.20;;;;;;;10.96;56.61;100625.13;30606741;28;96792;-69
2023/04/10 18:05:38;;;;;;;23.63;16.08;;;;;;;10.48;58.47;100617.66;30607556;28;96733;-67
2023/04/10 18:20:39;;;;;;;27.03;15.13;;;;;;;10.11;59.56;100618.72;30606284;28;97069;-66
2023/04/10 18:35:39;;;;;;;25.30;15.18;;;;;;;9.79;60.91;100612.19;30605127;28;96788;-65
2023/04/10 18:50:39;;;;;;;28.02;18.30;;;;;;;9.46;62.17;100617.25;30604088;28;97324;-64
2023/04/10 19:05:41;;;;;;;32.88;19.20;;;;;;;9.42;63.78;100615.06;30601437;28;96892;-64
2023/04/10 19:20:41;;;;;;;32.43;18.73;;;;;;;9.19;64.92;100604.84;30600413;28;97141;-64
2023/04/10 19:35:42;;;;;;;31.67;18.30;;;;;;;8.86;66.20;100593.88;30600380;28;97384;-63
2023/04/10 19:50:42;;;;;;;34.88;18.65;;;;;;;8.58;67.13;100604.53;30597572;28;97113;-64
2023/04/10 20:05:42;;;;;;;37.50;21.60;;;;;;;8.22;67.61;100576.97;30607440;28;97534;-64
2023/04/10 20:20:43;;;;;;;35.22;21.25;;;;;;;7.94;68.21;100567.16;30610377;28;97095;-64
2023/04/10 20:35:44;;;;;;;37.97;22.08;;;;;;;7.80;69.31;100538.41;30623139;28;96762;-64
2023/04/10 20:50:45;;;;;;;36.25;20.92;;;;;;;7.60;70.27;100514.59;30622699;28;96992;-65
2023/04/10 21:05:45;;;;;;;39.77;23.23;;;;;;;7.39;71.08;100493.56;30622787;28;97027;-65
2023/04/10 21:20:46;;;;;;;51.58;25.23;;;;;;;7.18;71.60;100469.88;30622594;28;97378;-65
2023/04/10 21:35:46;;;;;;;41.30;23.35;;;;;;;7.06;71.91;100469.19;30620586;28;96706;-65
2023/04/10 21:50:49;;;;;;;42.33;24.48;;;;;;;6.82;72.58;100442.28;30619315;28;96763;-64
2023/04/10 22:05:50;;;;;;;48.87;26.47;;;;;;;6.69;73.39;100426.69;30618259;28;96690;-65
2023/04/10 22:20:50;;;;;;;44.53;24.02;;;;;;;6.52;73.89;100388.50;30616890;28;96717;-64
2023/04/10 22:35:52;;;;;;;44.78;23.42;;;;;;;6.34;74.47;100360.09;30615786;28;97071;-64
2023/04/10 22:50:52;;;;;;;46.88;25.60;;;;;;;6.23;74.34;100357.56;30613510;28;96658;-64
2023/04/10 23:05:53;;;;;;;50.15;25.08;;;;;;;6.04;75.02;100339.88;30613492;28;96485;-64
2023/04/10 23:20:53;;;;;;;44.28;24.52;;;;;;;5.92;75.56;100318.00;30611793;28;97315;-64
2023/04/10 23:35:53;;;;;;;49.40;26.70;;;;;;;5.81;75.74;100284.56;30610904;28;97386;-64
2023/04/10 23:51:07;;;;;;;54.00;26.63;;;;;;;5.72;76.25;100249.19;30609808;28;97302;-64
